Time;durP1;ratioP1;P1;durP2;ratioP2;P2;SDS_P1;SDS_P2;PMS_P1;PMS_P2;Temp;Humidity;BMP_temperature;BMP_pressure;BME280_temperature;BME280_humidity;BME280_pressure;Samples;Min_cycle;Max_cycle;Signal;HPM_P1;HPM_P2
2022/01/05 07:03:22;;;;;;;;;;;;;;;2.62;100.00;99803.50;4966471;27;5126971;-76
2022/01/05 07:05:48;;;;;;;;;;;;;;;2.89;100.00;99799.88;5129159;27;19923;-79
2022/01/05 07:08:13;;;;;;;;;;;;;;;2.91;100.00;99811.03;5152830;27;19922;-75
2022/01/05 07:10:38;;;;;;;;;;;;;;;2.98;100.00;99801.84;5133255;27;19951;-75
2022/01/05 07:13:04;;;;;;;;;;;;;;;3.04;100.00;99813.59;5150989;27;19920;-75
2022/01/05 07:15:29;;;;;;;;;;;;;;;3.08;100.00;99815.06;5133253;27;19922;-75
2022/01/05 07:17:55;;;;;;;;;;;;;;;3.16;100.00;99832.75;5117163;28;20290;-75
2022/01/05 07:20:20;;;;;;;;;;;;;;;2.98;100.00;99811.44;5130180;28;20014;-75
2022/01/05 07:22:46;;;;;;;;;;;;;;;2.98;100.00;99822.72;5111758;28;19996;-75
2022/01/05 07:25:11;;;;;;;;;;;;;;;3.08;100.00;99826.31;5131449;28;19941;-75
2022/01/05 07:27:37;;;;;;;;;;;;;;;3.10;100.00;99844.47;5136493;28;19920;-78
2022/01/05 07:30:04;;;;;;;;;;;;;;;3.03;100.00;99835.41;5131306;28;19916;-75
2022/01/05 07:32:30;;;;;;;;;;;;;;;3.13;100.00;99834.66;5098265;28;19926;-75
2022/01/05 07:34:55;;;;;;;;;;;;;;;3.12;100.00;99840.81;5129688;28;19920;-75
2022/01/05 07:37:23;;;;;;;;;;;;;;;3.11;100.00;99839.16;5112069;28;19923;-76
2022/01/05 07:39:48;;;;;;;;;;;;;;;3.02;100.00;99838.94;5112151;28;19920;-76
2022/01/05 07:42:14;;;;;;;;;;;;;;;3.16;100.00;99843.19;5111692;28;19928;-76
2022/01/05 07:44:40;;;;;;;;;;;;;;;3.12;100.00;99839.97;5111821;28;20588;-75
2022/01/05 07:47:05;;;;;;;;;;;;;;;3.21;100.00;99847.16;5112620;28;19927;-78
2022/01/05 07:49:31;;;;;;;;;;;;;;;3.26;100.00;99839.00;5112346;28;19927;-75
2022/01/05 07:51:56;;;;;;;;;;;;;;;3.24;100.00;99849.53;5111348;28;19927;-75
2022/01/05 07:54:22;;;;;;;;;;;;;;;3.22;100.00;99867.06;5111849;28;19919;-79
2022/01/05 07:56:47;;;;;;;;;;;;;;;3.40;100.00;99845.81;5118812;27;19942;-75
2022/01/05 07:59:13;;;;;;;;;;;;;;;3.41;100.00;99857.94;5140974;27;19915;-75
2022/01/05 08:01:39;;;;;;;;;;;;;;;3.35;100.00;99838.31;5123411;28;19923;-74
2022/01/05 08:04:04;;;;;;;;;;;;;;;3.41;100.00;99855.34;5126899;27;20292;-76
2022/01/05 08:06:30;;;;;;;;;;;;;;;3.43;100.00;99843.84;5154782;27;19926;-75
2022/01/05 08:08:58;;;;;;;;;;;;;;;3.41;100.00;99858.78;5151878;27;19963;-74
2022/01/05 08:11:23;;;;;;;;;;;;;;;3.50;100.00;99859.88;5132146;27;19973;-75
2022/01/05 08:13:49;;;;;;;;;;;;;;;3.55;100.00;99863.00;5122494;27;19916;-74
2022/01/05 08:16:14;;;;;;;;;;;;;;;3.62;100.00;99864.19;5098059;27;20395;-75
2022/01/05 08:18:40;;;;;;;;;;;;;;;3.57;100.00;99860.28;5113340;27;20378;-79
2022/01/05 08:21:05;;;;;;;;;;;;;;;3.56;100.00;99867.25;5109565;28;19919;-74
2022/01/05 08:23:31;;;;;;;22.23;3.67;;;;;;;3.15;100.00;99808.44;5118004;28;20377;-79
2022/01/05 08:25:57;;;;;;;36.17;4.35;;;;;;;3.64;100.00;99870.16;5117856;28;20023;-74
2022/01/05 08:28:24;;;;;;;62.90;19.67;;;;;;;3.70;100.00;99863.63;5119035;28;20034;-75
2022/01/05 08:30:49;;;;;;;56.55;16.65;;;;;;;2.99;100.00;99737.47;5109028;27;20035;-74
2022/01/05 08:33:17;;;;;;;32.63;7.18;;;;;;;3.12;100.00;99801.69;5077057;28;20032;-77
2022/01/05 08:35:44;;;;;;;27.52;3.47;;;;;;;2.90;100.00;99781.50;5098651;27;20019;-75
2022/01/05 08:38:10;;;;;;;23.13;3.05;;;;;;;3.62;100.00;99913.81;5099111;27;20016;-74
2022/01/05 08:40:36;;;;;;;25.08;3.58;;;;;;;3.19;100.00;99822.13;5129535;27;20031;-76
2022/01/05 08:43:05;;;;;;;23.92;3.83;;;;;;;2.75;100.00;99816.50;5092893;27;20437;-75
2022/01/05 08:45:32;;;;;;;22.27;3.70;;;;;;;3.11;100.00;99846.97;5131950;27;20035;-74
2022/01/05 08:47:59;;;;;;;56.42;17.77;;;;;;;3.51;100.00;99904.13;5121044;27;20027;-75
2022/01/05 08:50:27;;;;;;;25.60;5.13;;;;;;;3.24;100.00;99865.19;5137302;27;20110;-75
2022/01/05 08:52:54;;;;;;;40.53;5.25;;;;;;;3.36;100.00;99879.13;5104543;27;20025;-79
2022/01/05 08:55:25;;;;;;;29.90;3.97;;;;;;;3.05;100.00;99830.94;5112143;28;20039;-74
2022/01/05 08:57:50;;;;;;;31.23;4.18;;;;;;;2.31;100.00;99713.59;5117330;28;20023;-73
2022/01/05 09:00:17;;;;;;;34.20;3.92;;;;;;;2.63;100.00;99744.38;5081781;28;20034;-73
2022/01/05 09:02:43;;;;;;;33.13;3.67;;;;;;;2.85;100.00;99811.47;5098342;28;20043;-72
2022/01/05 09:05:09;;;;;;;35.08;4.40;;;;;;;3.82;100.00;99940.25;5117696;28;20156;-75
2022/01/05 09:07:34;;;;;;;27.55;4.20;;;;;;;2.99;100.00;99789.63;5107272;28;20040;-73
2022/01/05 09:10:00;;;;;;;;;;;;;;;3.88;100.00;99942.41;5100976;28;20031;-73
2022/01/05 09:12:25;;;;;;;;;;;;;;;3.88;100.00;99926.75;5085521;28;19967;-78
2022/01/05 09:14:51;;;;;;;;;;;;;;;4.00;100.00;99928.47;5100269;28;19912;-74
2022/01/05 09:17:16;;;;;;;;;;;;;;;4.06;100.00;99938.44;5098047;28;20369;-74
2022/01/05 09:19:42;;;;;;;;;;;;;;;4.10;100.00;99950.34;5117035;28;19912;-75
2022/01/05 09:22:08;;;;;;;;;;;;;;;3.98;100.00;99939.03;5099447;28;20433;-75
2022/01/05 09:24:36;;;;;;;;;;;;;;;3.93;100.00;99948.16;5098354;28;19915;-76
2022/01/05 09:27:04;;;;;;;;;;;;;;;3.92;100.00;99949.91;5081875;28;19919;-74
2022/01/05 09:29:32;;;;;;;;;;;;;;;3.89;100.00;99962.38;5098580;28;19919;-75
2022/01/05 09:32:03;;;;;;;;;;;;;;;3.96;100.00;99963.59;5098711;28;19912;-75
2022/01/05 09:34:28;;;;;;;;;;;;;;;3.95;100.00;99962.75;5081915;28;19911;-78
2022/01/05 09:36:59;;;;;;;;;;;;;;;4.00;100.00;99965.03;5107458;27;20430;-74
2022/01/05 09:42:08;;;;;;;;;;;;;;;4.21;100.00;99977.47;5107821;27;19911;-73
2022/01/05 09:44:41;;;;;;;;;;;;;;;4.25;100.00;99971.91;5112977;27;19912;-73
2022/01/05 09:47:26;;;;;;;;;;;;;;;4.19;100.00;99962.72;5113250;27;19915;-73
2022/01/05 09:50:01;;;;;;;;;;;;;;;4.25;100.00;99989.38;5111445;27;19919;-75
2022/01/05 09:52:26;;;;;;;;;;;;;;;4.27;100.00;99990.94;5117111;27;19912;-74
2022/01/05 09:54:52;;;;;;;;;;;;;;;4.31;100.00;99989.72;5117057;27;19935;-73
2022/01/05 09:57:19;;;;;;;;;;;;;;;4.32;100.00;99993.22;5135591;27;19956;-73
2022/01/05 09:59:48;;;;;;;;;;;;;;;4.26;100.00;99997.09;5136396;27;19924;-73
2022/01/05 10:02:18;;;;;;;;;;;;;;;4.29;100.00;100017.78;5136741;27;20361;-75
2022/01/05 10:04:44;;;;;;;;;;;;;;;4.22;100.00;100026.16;5119819;27;19943;-76
2022/01/05 10:07:09;;;;;;;;;;;;;;;4.19;100.00;100016.78;5136083;27;20048;-74
2022/01/05 10:09:42;;;;;;;;;;;;;;;4.12;100.00;100011.16;5097867;27;19968;-73
2022/01/05 10:12:08;;;;;;;;;;;;;;;4.37;100.00;100012.81;5135137;27;20547;-74
2022/01/05 10:14:33;;;;;;;;;;;;;;;4.42;100.00;100020.31;5093465;28;19923;-74
2022/01/05 10:17:00;;;;;;;;;;;;;;;4.30;100.00;100029.06;5094250;28;19908;-75
2022/01/05 10:19:26;;;;;;;;;;;;;;;4.29;100.00;100027.38;5096895;28;19963;-75
2022/01/05 10:21:51;;;;;;;;;;;;;;;4.11;100.00;100038.25;5086233;28;19923;-75
2022/01/05 10:24:18;;;;;;;;;;;;;;;4.07;100.00;100049.03;5095637;28;19919;-75
2022/01/05 10:26:46;;;;;;;;;;;;;;;4.14;100.00;100058.09;5094748;28;20318;-75
2022/01/05 10:29:20;;;;;;;;;;;;;;;4.22;100.00;100041.84;5094259;28;19947;-74
2022/01/05 10:31:53;;;;;;;;;;;;;;;4.26;100.00;100045.91;5075094;28;19915;-76
2022/01/05 10:34:24;;;;;;;;;;;;;;;4.26;100.00;100045.91;5076241;27;20405;-74
2022/01/05 10:36:51;;;;;;;;;;;;;;;4.44;100.00;100060.25;5095848;27;19920;-73
2022/01/05 10:39:28;;;;;;;;;;;;;;;4.53;100.00;100056.97;5103440;28;20361;-74
2022/01/05 10:41:54;;;;;;;;;;;;;;;4.56;100.00;100058.50;5131434;27;19911;-73
2022/01/05 10:44:21;;;;;;;;;;;;;;;4.43;100.00;100089.97;5115524;27;20074;-73
2022/01/05 10:46:48;;;;;;;;;;;;;;;4.15;100.00;100094.53;5116057;27;19911;-74
2022/01/05 10:49:22;;;;;;;;;;;;;;;4.16;100.00;100101.47;5099260;27;19936;-74
2022/01/05 10:51:48;;;;;;;;;;;;;;;4.36;100.00;100096.56;5098668;27;19919;-73
2022/01/05 10:54:15;;;;;;;;;;;;;;;4.77;100.00;100109.25;5116377;27;20059;-71
2022/01/05 10:56:40;;;;;;;;;;;;;;;4.72;100.00;100110.53;5114356;28;19908;-74
2022/01/05 10:59:37;;;;;;;;;;;;;;;4.71;100.00;100116.72;5111525;28;19981;-74
2022/01/05 11:02:22;;;;;;;;;;;;;;;4.66;100.00;100124.91;5111396;28;19947;-73
2022/01/05 11:04:50;;;;;;;;;;;;;;;4.52;100.00;100105.00;5094003;28;19923;-74
2022/01/05 11:07:39;;;;;;;;;;;;;;;4.53;100.00;100104.03;5076710;28;19967;-76
2022/01/05 11:10:11;;;;;;;;;;;;;;;4.58;100.00;100109.75;5069212;28;19916;-74
2022/01/05 11:12:38;;;;;;;;;;;;;;;4.60;100.00;100110.47;5076797;28;20062;-73
2022/01/05 11:15:16;;;;;;;;;;;;;;;4.63;100.00;100126.88;5074459;28;19919;-73
2022/01/05 11:17:44;;;;;;;;;;;;;;;4.74;100.00;100127.75;5081877;28;20002;-74
2022/01/05 11:20:09;;;;;;;;;;;;;;;4.84;100.00;100114.88;5074115;28;19911;-74
2022/01/05 11:22:35;;;;;;;;;;;;;;;4.91;100.00;100128.34;5091660;28;20354;-74
2022/01/05 11:25:20;;;;;;;;;;;;;;;4.77;100.00;100124.13;5058619;28;20484;-75
2022/01/05 11:28:06;;;;;;;26.48;3.85;;;;;;;4.06;100.00;100001.16;5079204;28;20003;-75
2022/01/05 11:30:42;;;;;;;22.52;3.33;;;;;;;3.76;100.00;99965.84;5093320;28;20039;-76
2022/01/05 11:33:08;;;;;;;23.00;3.67;;;;;;;4.73;100.00;100106.97;5120182;28;20040;-75
2022/01/05 11:35:34;;;;;;;27.63;4.15;;;;;;;4.18;100.00;100010.72;5104108;28;20027;-75
2022/01/05 11:38:01;;;;;;;24.30;4.47;;;;;;;4.94;100.00;100146.41;5095651;28;20047;-73
2022/01/05 11:40:29;;;;;;;26.98;3.38;;;;;;;4.29;100.00;100024.78;5148148;28;20030;-74
2022/01/05 11:43:03;;;;;;;;;;;;;;;4.99;100.00;100145.09;5132550;28;20055;-72
2022/01/05 11:45:31;;;;;;;;;;;;;;;5.09;100.00;100139.22;5132563;28;19911;-74
2022/01/05 11:48:16;;;;;;;;;;;;;;;5.44;100.00;100149.63;5116936;27;20001;-74
2022/01/05 11:50:42;;;;;;;;;;;;;;;5.06;100.00;100155.13;5137202;27;19919;-75
2022/01/05 11:53:08;;;;;;;;;;;;;;;5.06;100.00;100166.41;5155516;27;19967;-77
2022/01/05 11:55:53;;;;;;;;;;;;;;;5.33;100.00;100153.06;5138908;27;19907;-79
2022/01/05 11:58:21;;;;;;;;;;;;;;;5.25;100.00;100176.38;5136146;27;19999;-74
2022/01/05 12:00:48;;;;;;;;;;;;;;;5.08;100.00;100180.22;5146397;27;19988;-75
2022/01/05 12:03:37;;;;;;;;;;;;;;;5.22;100.00;100176.59;5150875;27;19919;-75
2022/01/05 12:06:06;;;;;;;;;;;;;;;5.12;100.00;100186.09;5134975;27;19915;-76
2022/01/05 12:08:41;;;;;;;;;;;;;;;4.93;100.00;100186.63;5132123;27;19911;-74
2022/01/05 12:11:26;;;;;;;;;;;;;;;4.77;100.00;100182.50;5126268;27;20015;-76
2022/01/05 12:17:14;;;;;;;;;;;;;;;4.73;100.00;100201.13;5147701;27;19983;-74
2022/01/05 12:19:48;;;;;;;;;;;;;;;4.76;100.00;100206.13;5130038;27;19911;-73
2022/01/05 12:22:21;;;;;;;;;;;;;;;5.14;100.00;100208.56;5130410;27;19975;-75
2022/01/05 12:24:53;;;;;;;;;;;;;;;5.21;100.00;100203.72;5149273;27;20344;-74
2022/01/05 12:27:25;;;;;;;26.75;4.68;;;;;;;5.38;100.00;100210.31;5144893;27;19918;-75
2022/01/05 12:33:43;;;;;;;32.72;5.82;;;;;;;5.60;100.00;100191.22;5143873;27;20054;-74
2022/01/05 12:36:13;;;;;;;23.80;4.10;;;;;;;5.60;100.00;100193.81;5143248;27;20053;-74
2022/01/05 12:38:47;;;;;;;26.15;5.10;;;;;;;5.63;100.00;100228.50;5144009;27;20038;-73
2022/01/05 12:41:21;;;;;;;;;;;;;;;5.49;100.00;100220.81;5143772;27;20042;-73
2022/01/05 12:43:51;;;;;;;;;;;;;;;5.43;100.00;100222.13;5127588;27;19944;-74
2022/01/05 12:49:39;;;;;;;26.25;3.95;;;;;;;5.75;100.00;100200.53;5140018;27;19954;-74
2022/01/05 12:52:07;;;;;;;26.33;4.20;;;;;;;5.57;100.00;100231.56;5120672;27;20027;-75
2022/01/05 12:54:43;;;;;;;26.50;3.92;;;;;;;5.13;100.00;100175.50;5120173;27;20023;-76
2022/01/05 12:57:14;;;;;;;26.55;3.33;;;;;;;5.01;100.00;100182.47;5119933;27;20019;-75
2022/01/05 12:59:43;;;;;;;24.23;4.72;;;;;;;5.17;100.00;100197.03;5122894;27;20428;-75
2022/01/05 13:02:16;;;;;;;24.08;3.15;;;;;;;4.62;100.00;100143.53;5124602;27;20111;-75
2022/01/05 13:04:49;;;;;;;21.60;3.33;;;;;;;4.56;100.00;100142.19;5143659;27;20068;-75
2022/01/05 13:07:16;;;;;;;34.80;3.22;;;;;;;5.27;100.00;100260.00;5124964;27;20030;-74
2022/01/05 13:09:43;;;;;;;24.42;2.90;;;;;;;5.33;100.00;100275.28;5140113;27;20023;-74
2022/01/05 13:12:12;;;;;;;25.88;3.50;;;;;;;5.41;100.00;100229.25;5120897;27;20035;-77
2022/01/05 13:14:41;;;;;;;69.75;22.70;;;;;;;5.41;100.00;100241.53;5105898;27;20030;-77
2022/01/05 13:17:09;;;;;;;47.42;13.63;;;;;;;5.47;100.00;100282.13;5121502;27;20019;-77
2022/01/05 13:19:50;;;;;;;;;;;;;;;5.58;100.00;100275.13;5119313;27;20467;-75
2022/01/05 13:22:20;;;;;;;;;;;;;;;5.96;100.00;100281.94;5137136;27;19913;-75
2022/01/05 13:24:48;;;;;;;;;;;;;;;5.82;100.00;100274.25;5121984;27;19973;-78
2022/01/05 13:27:14;;;;;;;;;;;;;;;5.70;100.00;100296.97;5124172;27;19928;-75
2022/01/05 13:29:45;;;;;;;;;;;;;;;5.54;100.00;100313.00;5142429;27;19911;-75
2022/01/05 13:32:12;;;;;;;;;;;;;;;5.50;100.00;100295.00;5121294;27;19911;-76
2022/01/05 13:34:45;;;;;;;23.83;2.95;;;;;;;4.34;100.00;100099.31;5119960;27;19923;-75
2022/01/05 13:37:14;;;;;;;21.25;3.00;;;;;;;4.66;100.00;100168.53;5137766;27;20333;-75
2022/01/05 13:39:46;;;;;;;18.27;2.80;;;;;;;5.21;100.00;100303.19;5118232;27;20019;-75
2022/01/05 13:42:30;;;;;;;27.48;3.03;;;;;;;5.59;100.00;100321.34;5136318;27;20091;-75
2022/01/05 13:44:56;;;;;;;21.77;3.40;;;;;;;5.19;100.00;100258.78;5118511;27;20027;-75
2022/01/05 13:47:23;;;;;;;27.63;3.42;;;;;;;5.57;100.00;100283.13;5100090;27;20071;-75
2022/01/05 13:50:24;;;;;;;26.98;3.67;;;;;;;5.76;100.00;100327.94;5135961;27;20072;-74
2022/01/05 13:53:02;;;;;;;21.88;3.17;;;;;;;5.57;100.00;100332.88;5053831;28;20075;-74
2022/01/05 13:55:36;;;;;;;23.92;3.10;;;;;;;5.87;100.00;100332.38;5052316;28;20029;-74
2022/01/05 13:58:13;;;;;;;26.10;3.10;;;;;;;5.98;100.00;100345.56;5036273;28;20033;-77
2022/01/05 14:00:40;;;;;;;28.88;5.10;;;;;;;4.95;100.00;100221.31;5039593;28;20037;-76
2022/01/05 14:03:06;;;;;;;25.30;3.50;;;;;;;5.66;100.00;100347.91;5053805;28;20053;-74
2022/01/05 14:05:32;;;;;;;21.67;3.20;;;;;;;5.09;100.00;100289.22;5039304;28;20201;-74
2022/01/05 14:08:03;;;;;;;24.55;3.33;;;;;;;5.19;100.00;100319.00;5054056;28;20033;-74
2022/01/05 14:10:33;;;;;;;21.15;3.08;;;;;;;5.56;100.00;100367.88;5035469;28;20482;-74
2022/01/05 14:13:06;;;;;;;24.08;4.65;;;;;;;5.43;100.00;100375.78;5051791;28;20075;-74
2022/01/05 14:15:33;;;;;;;23.92;3.80;;;;;;;5.48;100.00;100389.38;5051858;28;20582;-74
2022/01/05 14:18:26;;;;;;;23.08;2.90;;;;;;;4.72;100.00;100270.06;5036038;28;20108;-77
2022/01/05 14:20:55;;;;;;;18.75;3.10;;;;;;;5.07;100.00;100304.19;5048977;28;20029;-76
2022/01/05 14:23:23;;;;;;;25.38;3.88;;;;;;;4.56;100.00;100223.25;5054414;28;20173;-75
2022/01/05 14:26:00;;;;;;;23.60;3.50;;;;;;;5.11;100.00;100347.53;5055048;28;20029;-77
2022/01/05 14:28:30;;;;;;;;;;;;;;;5.36;100.00;100404.19;5054332;27;20039;-75
2022/01/05 14:30:59;;;;;;;;;;;;;;;5.46;100.00;100395.69;5120121;27;19916;-75
2022/01/05 14:33:34;;;;;;;;;;;;;;;5.26;100.00;100405.78;5122928;27;19911;-76
2022/01/05 14:36:00;;;;;;;;;;;;;;;5.41;100.00;100407.31;5136647;27;19918;-75
2022/01/05 14:38:25;;;;;;;;;;;;;;;5.44;100.00;100411.50;5134984;27;19915;-75
2022/01/05 14:40:51;;;;;;;;;;;;;;;5.43;100.00;100413.28;5117703;27;19912;-75
2022/01/05 14:43:19;;;;;;;;;;;;;;;5.42;100.00;100419.44;5118394;27;20206;-75
2022/01/05 14:45:45;;;;;;;;;;;;;;;5.48;100.00;100436.53;5138091;27;19967;-77
2022/01/05 14:48:10;;;;;;;;;;;;;;;5.39;100.00;100431.94;5136655;27;19911;-76
2022/01/05 14:50:38;;;;;;;;;;;;;;;5.30;100.00;100449.13;5136504;27;20261;-75
2022/01/05 14:53:07;;;;;;;;;;;;;;;5.30;100.00;100446.50;5117687;27;19929;-77
2022/01/05 14:55:33;;;;;;;;;;;;;;;5.28;100.00;100448.41;5118276;27;20059;-76
2022/01/05 14:57:58;;;;;;;;;;;;;;;5.28;100.00;100442.34;5118186;27;20357;-75
2022/01/05 15:00:26;;;;;;;;;;;;;;;5.26;100.00;100460.75;5136292;27;19953;-75
2022/01/05 15:02:52;;;;;;;;;;;;;;;5.18;100.00;100463.09;5117859;28;20020;-76
2022/01/05 15:05:18;;;;;;;;;;;;;;;5.20;100.00;100467.28;5118311;28;19919;-76
2022/01/05 15:07:46;;;;;;;;;;;;;;;5.26;100.00;100467.78;5136844;28;19994;-76
2022/01/05 15:10:12;;;;;;;;;;;;;;;5.16;100.00;100470.22;5120022;28;19915;-77
2022/01/05 15:12:37;;;;;;;;;;;;;;;5.16;100.00;100478.91;5122279;28;20448;-77
2022/01/05 15:15:05;;;;;;;31.83;3.90;;;;;;;4.55;100.00;100397.63;5103890;28;19916;-78
2022/01/05 15:21:17;;;;;;;39.03;10.32;;;;;;;4.73;100.00;100447.00;5142631;28;20034;-77
2022/01/05 15:23:44;;;;;;;27.20;4.13;;;;;;;4.85;100.00;100461.03;5105717;27;20049;-76
2022/01/05 15:26:11;;;;;;;20.50;3.33;;;;;;;5.08;100.00;100501.31;5122384;27;20019;-76
2022/01/05 15:28:43;;;;;;;18.05;2.78;;;;;;;4.60;100.00;100405.16;5106310;27;20135;-75
2022/01/05 15:31:09;;;;;;;20.95;3.15;;;;;;;4.48;100.00;100426.91;5126738;27;20354;-76
2022/01/05 15:33:38;;;;;;;26.20;3.63;;;;;;;5.02;100.00;100516.50;5142041;27;20361;-74
2022/01/05 15:36:04;;;;;;;26.20;3.08;;;;;;;4.54;100.00;100439.56;5139310;27;20027;-75
2022/01/05 15:38:30;;;;;;;24.85;3.50;;;;;;;5.10;100.00;100557.84;5106103;27;20052;-78
2022/01/05 15:40:55;;;;;;;32.03;3.80;;;;;;;4.67;100.00;100476.19;5123460;27;20487;-75
2022/01/05 15:43:21;;;;;;;27.63;3.45;;;;;;;4.84;100.00;100511.66;5140613;27;20031;-76
2022/01/05 15:45:46;;;;;;;28.60;3.42;;;;;;;4.59;100.00;100488.00;5121691;27;20027;-77
2022/01/05 15:48:14;;;;;;;23.27;4.35;;;;;;;4.56;100.00;100469.06;5120688;27;20035;-75
2022/01/05 15:50:41;;;;;;;26.15;3.95;;;;;;;4.11;100.00;100397.97;5120698;27;20421;-75
2022/01/05 15:53:09;;;;;;;21.33;2.80;;;;;;;4.95;100.00;100554.50;5119477;27;20015;-75
2022/01/05 15:55:48;;;;;;;23.45;3.20;;;;;;;4.18;100.00;100447.16;5120761;27;20491;-75
2022/01/05 16:01:19;;;;;;;25.35;3.25;;;;;;;4.66;100.00;100545.13;5138283;27;20026;-74
2022/01/05 16:03:46;;;;;;;27.73;2.65;;;;;;;4.27;100.00;100491.91;5119463;27;20073;-76
2022/01/05 16:06:12;;;;;;;21.25;3.20;;;;;;;4.49;100.00;100510.47;5120538;27;20454;-76
2022/01/05 16:08:38;;;;;;;18.20;3.10;;;;;;;4.90;100.00;100582.72;5120957;27;20038;-75
2022/01/05 16:11:04;;;;;;;23.23;3.38;;;;;;;4.50;100.00;100522.63;5120364;27;20464;-75
2022/01/05 16:13:30;;;;;;;16.17;2.30;;;;;;;4.83;100.00;100615.47;5120573;27;20477;-75
2022/01/05 16:15:56;;;;;;;21.60;2.15;;;;;;;4.46;100.00;100581.28;5120418;27;20031;-75
2022/01/05 16:18:22;;;;;;;10.30;1.77;;;;;;;3.63;100.00;100455.09;5103398;27;20020;-75
2022/01/05 16:20:47;;;;;;;15.52;2.03;;;;;;;3.77;100.00;100509.91;5132531;27;20094;-74
2022/01/05 16:23:13;;;;;;;13.45;1.60;;;;;;;3.45;100.00;100451.88;5110512;27;20031;-76
2022/01/05 16:25:39;;;;;;;11.35;1.40;;;;;;;4.38;100.00;100618.38;5138492;27;20030;-77
2022/01/05 16:28:05;;;;;;;7.55;1.30;;;;;;;4.11;100.00;100560.84;5140051;27;20035;-79
2022/01/05 16:30:34;;;;;;;15.82;1.80;;;;;;;4.49;100.00;100683.03;5107238;27;20042;-81
2022/01/05 16:33:00;;;;;;;11.27;1.77;;;;;;;4.38;100.00;100654.13;5146490;27;20065;-82
2022/01/05 16:35:27;;;;;;;9.70;1.52;;;;;;;3.10;100.00;100458.34;5102808;27;20030;-77
2022/01/05 16:37:53;;;;;;;13.13;2.20;;;;;;;3.90;100.00;100580.50;5120613;27;20027;-78
2022/01/05 16:40:19;;;;;;;20.13;2.88;;;;;;;3.69;100.00;100574.84;5143755;27;20019;-79
2022/01/05 16:42:44;;;;;;;16.30;2.97;;;;;;;4.41;100.00;100685.31;5150506;27;20035;-81
2022/01/05 16:45:11;;;;;;;16.92;2.97;;;;;;;4.59;100.00;100691.16;5135219;27;20026;-82
2022/01/05 16:51:18;;;;;;;25.92;4.43;;;;;;;4.33;100.00;100632.66;5138347;27;20092;-77
2022/01/05 16:53:45;;;;;;;17.52;3.53;;;;;;;3.92;100.00;100557.72;5121477;27;20019;-78
2022/01/05 16:56:18;;;;;;;29.13;7.50;;;;;;;3.87;100.00;100558.00;5138458;27;20188;-78
2022/01/05 17:01:31;;;;;;;39.97;12.98;;;;;;;4.74;100.00;100700.63;5119398;27;20011;-78
2022/01/05 17:03:57;;;;;;;28.92;6.93;;;;;;;3.87;100.00;100565.84;5119145;27;20396;-80
2022/01/05 17:06:24;;;;;;;24.90;4.70;;;;;;;4.02;100.00;100626.78;5120638;27;20034;-81
2022/01/05 17:08:53;;;;;;;108.45;45.38;;;;;;;4.59;100.00;100706.84;5118159;27;20448;-78
2022/01/05 17:11:20;;;;;;;21.13;4.88;;;;;;;4.14;100.00;100626.00;5120844;27;20087;-79
2022/01/05 17:13:46;;;;;;;29.52;5.10;;;;;;;4.46;100.00;100714.63;5138277;27;20023;-80
2022/01/05 17:16:12;;;;;;;23.40;3.17;;;;;;;4.26;100.00;100691.50;5118628;27;20464;-77
2022/01/05 17:18:38;;;;;;;25.42;4.60;;;;;;;3.72;100.00;100595.53;5118105;27;20043;-77
2022/01/05 17:21:04;;;;;;;23.23;3.95;;;;;;;4.36;100.00;100698.69;5137763;27;20049;-78
2022/01/05 17:23:30;;;;;;;23.10;3.25;;;;;;;3.80;100.00;100624.63;5119344;27;20447;-77
2022/01/05 17:25:55;;;;;;;18.55;3.40;;;;;;;4.66;100.00;100730.84;5137064;27;20023;-76
2022/01/05 17:28:26;;;;;;;20.98;2.60;;;;;;;4.22;100.00;100650.81;5103717;27;20031;-81
2022/01/05 17:34:33;;;;;;;30.67;4.22;;;;;;;3.43;100.00;100517.25;5142360;27;20056;-79
2022/01/05 17:36:58;;;;;;;22.80;3.40;;;;;;;4.64;100.00;100761.47;5106281;27;20027;-79
2022/01/05 17:42:27;;;;;;;;;;;;;;;4.50;100.00;100744.88;4979252;28;19933;-77
2022/01/05 17:44:55;;;;;;;;;;;;;;;4.59;100.00;100744.28;4980640;28;19970;-77
2022/01/05 17:47:22;;;;;;;;;;;;;;;4.54;100.00;100750.75;4958622;28;19961;-78
2022/01/05 17:49:52;;;;;;;;;;;;;;;4.51;100.00;100746.53;5038997;22;19968;-79
2022/01/05 17:52:18;;;;;;;;;;;;;;;4.59;100.00;100749.53;4977110;28;19928;-77
2022/01/05 17:54:44;;;;;;;;;;;;;;;4.43;100.00;100755.78;4966604;28;19957;-82
2022/01/05 17:57:09;;;;;;;;;;;;;;;4.35;100.00;100759.72;4959275;28;19915;-78
2022/01/05 17:59:35;;;;;;;;;;;;;;;4.47;100.00;100779.03;4959046;28;20001;-80
2022/01/05 18:02:01;;;;;;;;;;;;;;;4.36;100.00;100782.34;4967630;28;19918;-77
2022/01/05 18:04:27;;;;;;;;;;;;;;;4.32;100.00;100783.47;4972823;28;19980;-77
2022/01/05 18:06:52;;;;;;;;;;;;;;;4.30;100.00;100793.16;4965342;28;19918;-77
2022/01/05 18:09:18;;;;;;;;;;;;;;;4.18;100.00;100799.97;4949490;28;19918;-76
2022/01/05 18:11:44;;;;;;;;;;;;;;;4.09;100.00;100829.28;4960319;28;19913;-77
2022/01/05 18:14:09;;;;;;;;;;;;;;;3.66;100.00;100817.91;4971801;28;20355;-76
2022/01/05 18:16:46;;;;;;;;;;;;;;;3.64;100.00;100831.03;4952153;28;19946;-77
2022/01/05 18:19:12;;;;;;;;;;;;;;;3.47;100.00;100825.91;4961732;28;20093;-77
2022/01/05 18:21:39;;;;;;;;;;;;;;;3.77;100.00;100831.19;4952384;28;19914;-76
2022/01/05 18:24:06;;;;;;;;;;;;;;;3.67;100.00;100832.63;4953324;28;19918;-76
2022/01/05 18:26:32;;;;;;;;;;;;;;;3.75;100.00;100841.69;4969881;28;20305;-77
2022/01/05 18:28:57;;;;;;;;;;;;;;;3.90;100.00;100844.34;4964879;28;19925;-80
2022/01/05 18:31:23;;;;;;;;;;;;;;;3.92;100.00;100847.72;4962045;28;19960;-77
2022/01/05 18:33:49;;;;;;;;;;;;;;;3.92;100.00;100848.53;4962794;28;19945;-78
2022/01/05 18:36:16;;;;;;;;;;;;;;;3.89;100.00;100850.50;5003356;22;19922;-79
2022/01/05 18:38:44;;;;;;;;;;;;;;;4.14;100.00;100857.75;4988555;28;19928;-78
2022/01/05 18:41:10;;;;;;;;;;;;;;;4.11;100.00;100855.28;4970176;28;20342;-77
2022/01/05 18:43:37;;;;;;;;;;;;;;;4.09;100.00;100860.63;4998907;28;20577;-79
2022/01/05 18:46:04;;;;;;;;;;;;;;;4.00;100.00;100863.78;4963186;28;19913;-77
2022/01/05 18:48:35;;;;;;;;;;;;;;;3.94;100.00;100867.59;5013178;23;19971;-80
2022/01/05 18:51:00;;;;;;;;;;;;;;;4.09;100.00;100860.63;5032304;28;19916;-78
2022/01/05 18:53:29;;;;;;;;;;;;;;;4.05;100.00;100869.59;5023139;28;19966;-80
2022/01/05 18:55:55;;;;;;;;;;;;;;;3.90;100.00;100868.69;5054707;28;20470;-79
2022/01/05 18:58:21;;;;;;;;;;;;;;;4.02;100.00;100869.78;5061841;28;19965;-78
2022/01/05 19:00:47;;;;;;;;;;;;;;;3.97;100.00;100871.78;5039274;28;19913;-78
2022/01/05 19:03:12;;;;;;;;;;;;;;;3.95;100.00;100877.13;5051227;28;19920;-77
2022/01/05 19:05:41;;;;;;;;;;;;;;;4.03;100.00;100887.13;5048824;28;20354;-79
2022/01/05 19:08:10;;;;;;;;;;;;;;;3.92;100.00;100879.91;5069211;28;20373;-80
2022/01/05 19:10:36;;;;;;;;;;;;;;;3.74;100.00;100891.41;5048895;28;19912;-80
2022/01/05 19:13:02;;;;;;;;;;;;;;;3.81;100.00;100882.28;5054964;28;19912;-79
2022/01/05 19:15:28;;;;;;;;;;;;;;;3.84;100.00;100887.34;5069111;28;19919;-80
2022/01/05 19:17:54;;;;;;;;;;;;;;;3.81;100.00;100903.19;5068468;28;19920;-80
2022/01/05 19:20:19;;;;;;;;;;;;;;;3.81;100.00;100912.78;5057625;28;20346;-79
2022/01/05 19:22:47;;;;;;;;;;;;;;;3.84;100.00;100908.25;5068580;28;19963;-82
2022/01/05 19:25:18;;;;;;;;;;;;;;;3.84;100.00;100904.78;5042952;28;19924;-81
2022/01/05 19:27:54;;;;;;;;;;;;;;;4.04;100.00;100901.03;5045948;28;19970;-81
2022/01/05 19:30:20;;;;;;;;;;;;;;;4.00;100.00;100895.16;5044022;28;19913;-78
2022/01/05 19:32:45;;;;;;;;;;;;;;;4.02;100.00;100908.97;5053109;28;19955;-79
2022/01/05 19:35:14;;;;;;;;;;;;;;;3.87;100.00;100913.28;5014588;28;19917;-76
2022/01/05 19:37:39;;;;;;;;;;;;;;;3.94;100.00;100924.22;5007493;28;19966;-77
2022/01/05 19:40:07;;;;;;;;;;;;;;;3.68;100.00;100926.56;5039963;28;19971;-80
2022/01/05 19:42:33;;;;;;;;;;;;;;;3.66;100.00;100933.63;5027140;28;19970;-78
2022/01/05 19:44:59;;;;;;;;;;;;;;;3.74;100.00;100927.97;5037312;22;19928;-79
2022/01/05 19:47:25;;;;;;;;;;;;;;;3.73;100.00;100932.34;5037405;28;19920;-78